Time;durP1;ratioP1;P1;durP2;ratioP2;P2;SDS_P1;SDS_P2;PMS_P1;PMS_P2;Temp;Humidity;BMP_temperature;BMP_pressure;BME280_temperature;BME280_humidity;BME280_pressure;Samples;Min_cycle;Max_cycle;Signal;HPM_P1;HPM_P2
2024/03/24 00:00:20;;;;;;;20.38;5.20;;;8.80;99.90;;;;;;4988870;28;20035;-76
2024/03/24 00:02:46;;;;;;;17.25;4.65;;;8.70;99.90;;;;;;4971862;28;20138;-76
2024/03/24 00:05:12;;;;;;;20.77;5.43;;;8.70;99.90;;;;;;4939897;28;20031;-76
2024/03/24 00:07:37;;;;;;;19.00;5.97;;;8.70;99.90;;;;;;4939396;28;20027;-76
2024/03/24 00:10:04;;;;;;;21.90;5.35;;;8.70;99.90;;;;;;4988805;28;20026;-76
2024/03/24 00:12:29;;;;;;;10.98;4.63;;;8.70;99.90;;;;;;4955693;28;20049;-76
2024/03/24 00:14:55;;;;;;;17.05;5.13;;;8.60;99.90;;;;;;4971682;28;20054;-76
2024/03/24 00:17:23;;;;;;;20.15;5.22;;;8.60;99.90;;;;;;4955557;28;20050;-76
2024/03/24 00:19:49;;;;;;;22.92;4.57;;;8.70;99.90;;;;;;4971875;28;20031;-76
2024/03/24 00:22:15;;;;;;;17.33;4.20;;;8.70;99.90;;;;;;4971367;28;20034;-76
2024/03/24 00:24:40;;;;;;;20.13;5.22;;;8.70;99.90;;;;;;4939434;28;20075;-77
2024/03/24 00:27:06;;;;;;;13.55;4.28;;;8.70;99.90;;;;;;4955472;28;20041;-76
2024/03/24 00:29:32;;;;;;;19.60;4.78;;;8.70;99.90;;;;;;4971400;28;20070;-76
2024/03/24 00:31:57;;;;;;;14.27;4.75;;;8.70;99.90;;;;;;4988145;28;20022;-74
2024/03/24 00:34:23;;;;;;;15.52;4.90;;;8.70;99.90;;;;;;4988201;28;20026;-75
2024/03/24 00:36:49;;;;;;;16.75;5.43;;;8.70;99.90;;;;;;4988163;28;20188;-75
2024/03/24 00:39:14;;;;;;;17.63;5.07;;;8.70;99.90;;;;;;4988190;28;20019;-75
2024/03/24 00:41:40;;;;;;;17.88;5.15;;;8.70;99.90;;;;;;4939155;28;20191;-76
2024/03/24 00:44:06;;;;;;;15.70;4.63;;;8.60;99.90;;;;;;4970946;28;20077;-74
2024/03/24 00:46:31;;;;;;;19.88;5.00;;;8.70;99.90;;;;;;4955125;28;20146;-74
2024/03/24 00:48:57;;;;;;;19.30;5.40;;;8.60;99.90;;;;;;4988067;28;20037;-74
2024/03/24 00:51:23;;;;;;;15.02;4.72;;;8.70;99.90;;;;;;4971022;28;20034;-74
2024/03/24 00:53:48;;;;;;;16.25;4.60;;;8.70;99.90;;;;;;4987980;28;20038;-74
2024/03/24 00:56:14;;;;;;;19.70;4.85;;;8.60;99.90;;;;;;4987700;28;20042;-75
2024/03/24 00:58:40;;;;;;;16.42;4.80;;;8.60;99.90;;;;;;4970945;28;20030;-74
2024/03/24 01:01:06;;;;;;;16.08;4.15;;;8.60;99.90;;;;;;4970630;28;20030;-74
2024/03/24 01:03:32;;;;;;;18.30;4.10;;;8.60;99.90;;;;;;4970860;28;20046;-74
2024/03/24 01:05:57;;;;;;;16.10;4.90;;;8.60;99.90;;;;;;4970602;28;20035;-74
2024/03/24 01:08:23;;;;;;;20.70;5.10;;;8.60;99.90;;;;;;4970617;28;20228;-74
2024/03/24 01:10:49;;;;;;;14.98;3.63;;;8.60;99.90;;;;;;4970472;28;20062;-75
2024/03/24 01:13:14;;;;;;;16.30;5.18;;;8.60;99.90;;;;;;4987456;28;20027;-75
2024/03/24 01:15:44;;;;;;;16.52;4.50;;;8.60;99.90;;;;;;4954390;28;20031;-75
2024/03/24 01:18:10;;;;;;;15.98;4.82;;;8.60;99.90;;;;;;4953976;28;20054;-75
2024/03/24 01:20:35;;;;;;;16.27;4.50;;;8.60;99.90;;;;;;4954374;28;20034;-75
2024/03/24 01:23:01;;;;;;;17.40;4.28;;;8.60;99.90;;;;;;4970356;28;20022;-75
2024/03/24 01:25:27;;;;;;;21.17;4.28;;;8.60;99.90;;;;;;4954490;28;20031;-75
2024/03/24 01:27:52;;;;;;;14.57;5.10;;;8.60;99.90;;;;;;4970321;28;20192;-75
2024/03/24 01:30:18;;;;;;;24.02;4.50;;;8.60;99.90;;;;;;4970099;28;20049;-76
2024/03/24 01:32:44;;;;;;;18.33;4.50;;;8.50;99.90;;;;;;4954133;28;20034;-76
2024/03/24 01:35:09;;;;;;;14.35;3.60;;;8.50;99.90;;;;;;4970308;28;20090;-76
2024/03/24 01:37:35;;;;;;;17.98;4.10;;;8.40;99.90;;;;;;4970349;28;20237;-76
2024/03/24 01:40:02;;;;;;;16.83;4.07;;;8.40;99.90;;;;;;4970012;28;20046;-76
2024/03/24 01:42:28;;;;;;;15.05;3.92;;;8.40;99.90;;;;;;4970226;28;20180;-76
2024/03/24 01:44:54;;;;;;;15.02;4.18;;;8.40;99.90;;;;;;4969918;28;20102;-77
2024/03/24 01:47:19;;;;;;;13.82;3.63;;;8.40;99.90;;;;;;4987186;28;20034;-76
2024/03/24 01:49:45;;;;;;;15.38;3.78;;;8.50;99.90;;;;;;4987171;28;20283;-76
2024/03/24 01:52:13;;;;;;;20.55;4.00;;;8.50;99.90;;;;;;4954151;28;20069;-76
2024/03/24 01:54:38;;;;;;;13.38;3.85;;;8.50;99.90;;;;;;4970182;28;20029;-76
2024/03/24 01:57:04;;;;;;;18.38;3.88;;;8.50;99.90;;;;;;4953759;28;20093;-74
2024/03/24 01:59:30;;;;;;;22.45;4.35;;;8.50;99.90;;;;;;4953848;28;20257;-74
2024/03/24 02:01:56;;;;;;;20.05;4.25;;;8.40;99.90;;;;;;4953808;28;20196;-74
2024/03/24 02:04:22;;;;;;;18.70;4.85;;;8.40;99.90;;;;;;4953879;28;20073;-74
2024/03/24 02:06:47;;;;;;;18.10;4.05;;;8.30;99.90;;;;;;4969672;28;20280;-74
2024/03/24 02:09:13;;;;;;;15.18;4.18;;;8.30;99.90;;;;;;4969673;28;20046;-73
2024/03/24 02:11:39;;;;;;;19.40;4.50;;;8.30;99.90;;;;;;4938007;28;20015;-74
2024/03/24 02:14:04;;;;;;;18.88;3.83;;;8.30;99.90;;;;;;4986845;28;20037;-76
2024/03/24 02:16:30;;;;;;;17.02;4.10;;;8.40;99.90;;;;;;4986704;28;20082;-76
2024/03/24 02:18:56;;;;;;;21.25;4.38;;;8.40;99.90;;;;;;4953564;28;20057;-76
2024/03/24 02:21:21;;;;;;;15.57;4.00;;;8.40;99.90;;;;;;4969759;28;20042;-76
2024/03/24 02:23:50;;;;;;;16.60;4.20;;;8.40;99.90;;;;;;4969607;28;20177;-77
2024/03/24 02:26:16;;;;;;;19.75;4.88;;;8.40;99.90;;;;;;4986379;28;20026;-76
2024/03/24 02:28:42;;;;;;;17.27;3.28;;;8.40;99.90;;;;;;4986596;28;20098;-76
2024/03/24 02:31:07;;;;;;;17.15;3.92;;;8.30;99.90;;;;;;4973406;28;20030;-74
2024/03/24 02:33:33;;;;;;;15.43;3.42;;;8.30;99.90;;;;;;4957425;28;20076;-74
2024/03/24 02:35:59;;;;;;;18.88;4.28;;;8.30;99.90;;;;;;4990089;28;20090;-73
2024/03/24 02:38:24;;;;;;;14.75;3.90;;;8.20;99.90;;;;;;4957190;28;20035;-74
2024/03/24 02:40:50;;;;;;;15.30;3.70;;;8.20;99.90;;;;;;4957097;28;20045;-74
2024/03/24 02:43:16;;;;;;;17.67;2.95;;;8.20;99.90;;;;;;4973413;28;20035;-74
2024/03/24 02:45:42;;;;;;;15.02;3.50;;;8.20;99.90;;;;;;4990452;28;20041;-74
2024/03/24 02:48:07;;;;;;;14.43;3.80;;;8.30;99.90;;;;;;4973441;28;20230;-74
2024/03/24 02:50:33;;;;;;;19.42;3.75;;;8.30;99.90;;;;;;4957306;28;20165;-74
2024/03/24 02:52:59;;;;;;;19.15;3.55;;;8.30;99.90;;;;;;4973039;28;20034;-74
2024/03/24 02:55:25;;;;;;;19.75;3.80;;;8.30;99.90;;;;;;4973029;28;20179;-74
2024/03/24 02:57:54;;;;;;;13.48;4.22;;;8.30;99.90;;;;;;4973050;28;20192;-73
2024/03/24 03:00:20;;;;;;;14.75;3.72;;;8.40;99.90;;;;;;4972928;28;20030;-74
2024/03/24 03:02:45;;;;;;;16.63;3.40;;;8.40;99.90;;;;;;4957125;28;20239;-74
2024/03/24 03:05:11;;;;;;;14.07;3.40;;;8.40;99.90;;;;;;4941034;28;20034;-74
2024/03/24 03:07:37;;;;;;;21.33;4.25;;;8.40;99.90;;;;;;4957025;28;20031;-74
2024/03/24 03:10:07;;;;;;;13.82;3.13;;;8.40;99.90;;;;;;4956849;28;20228;-74
2024/03/24 03:12:36;;;;;;;15.40;3.63;;;8.40;99.90;;;;;;4973239;28;20026;-74
2024/03/24 03:15:04;;;;;;;17.88;4.03;;;8.50;99.90;;;;;;4957039;28;20331;-74
2024/03/24 03:17:30;;;;;;;18.42;3.78;;;8.40;99.90;;;;;;4956888;28;20029;-74
2024/03/24 03:19:56;;;;;;;15.60;3.83;;;8.40;99.90;;;;;;4972731;28;20023;-73
2024/03/24 03:22:21;;;;;;;17.77;3.92;;;8.50;99.90;;;;;;4972743;28;20046;-74
2024/03/24 03:24:47;;;;;;;18.38;3.55;;;8.40;99.90;;;;;;4956395;28;20085;-74
2024/03/24 03:27:13;;;;;;;15.13;3.60;;;8.40;99.90;;;;;;4989558;28;20054;-74
2024/03/24 03:29:38;;;;;;;17.30;3.58;;;8.40;99.90;;;;;;4972549;28;20155;-74
2024/03/24 03:32:04;;;;;;;15.90;3.97;;;8.40;99.90;;;;;;4956494;28;20026;-74
2024/03/24 03:34:30;;;;;;;18.00;3.75;;;8.50;99.90;;;;;;4972118;28;20041;-74
2024/03/24 03:36:56;;;;;;;16.10;3.85;;;8.40;99.90;;;;;;4989197;28;20034;-74
2024/03/24 03:39:21;;;;;;;20.60;4.05;;;8.50;99.90;;;;;;4972248;28;20077;-74
2024/03/24 03:41:47;;;;;;;22.27;4.45;;;8.50;99.90;;;;;;4939719;28;20106;-74
2024/03/24 03:44:13;;;;;;;17.60;3.80;;;8.50;99.90;;;;;;4972363;28;20031;-74
2024/03/24 03:46:38;;;;;;;16.05;3.60;;;8.50;99.90;;;;;;4972109;28;20019;-74
2024/03/24 03:49:04;;;;;;;13.27;3.80;;;8.50;99.90;;;;;;4972084;28;20162;-75
2024/03/24 03:51:37;;;;;;;15.68;3.88;;;8.50;99.90;;;;;;4972219;28;20248;-75
2024/03/24 03:54:04;;;;;;;16.90;3.85;;;8.50;99.90;;;;;;4972926;28;20026;-74
2024/03/24 03:56:30;;;;;;;16.15;3.70;;;8.50;99.90;;;;;;4956201;28;20179;-75
2024/03/24 03:58:56;;;;;;;18.40;4.05;;;8.40;99.90;;;;;;4956261;28;20050;-75
2024/03/24 04:01:21;;;;;;;17.90;4.07;;;8.40;99.90;;;;;;4971896;28;20034;-75
2024/03/24 04:03:48;;;;;;;15.20;3.97;;;8.40;99.90;;;;;;4956120;28;20026;-75
2024/03/24 04:06:13;;;;;;;16.40;3.55;;;8.40;99.90;;;;;;4971881;28;20027;-75
2024/03/24 04:08:39;;;;;;;14.07;3.88;;;8.40;99.90;;;;;;4988727;28;20022;-75
2024/03/24 04:11:07;;;;;;;17.55;3.17;;;8.40;99.90;;;;;;4955725;28;20102;-75
2024/03/24 04:13:32;;;;;;;13.57;3.35;;;8.40;99.90;;;;;;4988680;28;20093;-75
2024/03/24 04:15:58;;;;;;;19.70;3.83;;;8.40;99.90;;;;;;4955713;28;20030;-75
2024/03/24 04:18:24;;;;;;;20.50;3.72;;;8.40;99.90;;;;;;4955640;28;20027;-75
2024/03/24 04:20:49;;;;;;;16.88;4.05;;;8.40;99.90;;;;;;4971711;28;20022;-75
2024/03/24 04:23:15;;;;;;;11.18;3.60;;;8.40;99.90;;;;;;4939683;28;20315;-75
2024/03/24 04:25:41;;;;;;;13.85;3.00;;;8.40;99.90;;;;;;4955748;28;20058;-75
2024/03/24 04:28:06;;;;;;;15.90;3.58;;;8.40;99.90;;;;;;4988563;28;20049;-75
2024/03/24 04:30:32;;;;;;;20.17;4.07;;;8.40;99.90;;;;;;4971358;28;20053;-76
2024/03/24 04:32:59;;;;;;;17.98;3.88;;;8.40;99.90;;;;;;4971375;28;20062;-75
2024/03/24 04:35:25;;;;;;;15.73;3.75;;;8.40;99.90;;;;;;4955388;28;20027;-75
2024/03/24 04:37:51;;;;;;;15.00;3.53;;;8.40;99.90;;;;;;4988394;28;20030;-74
2024/03/24 04:40:16;;;;;;;18.38;3.97;;;8.40;99.90;;;;;;4971216;28;20047;-75
2024/03/24 04:42:42;;;;;;;14.18;3.80;;;8.40;99.90;;;;;;4955054;28;20073;-75
2024/03/24 04:45:08;;;;;;;16.17;4.00;;;8.40;99.90;;;;;;4971161;28;20197;-75
2024/03/24 04:47:34;;;;;;;17.17;3.67;;;8.40;99.90;;;;;;4955074;28;20054;-75
2024/03/24 04:50:00;;;;;;;19.23;3.80;;;8.40;99.90;;;;;;4955072;28;20031;-75
2024/03/24 04:52:25;;;;;;;16.42;3.35;;;8.40;99.90;;;;;;4971080;28;20046;-75
2024/03/24 04:54:51;;;;;;;22.20;3.47;;;8.40;99.90;;;;;;4971074;28;20035;-75
2024/03/24 04:57:17;;;;;;;15.18;3.55;;;8.40;99.90;;;;;;4954962;28;20082;-75
2024/03/24 04:59:43;;;;;;;11.98;3.20;;;8.40;99.90;;;;;;4971099;28;20019;-75
2024/03/24 05:02:09;;;;;;;15.25;3.65;;;8.40;99.90;;;;;;4970822;28;20284;-74
2024/03/24 05:04:35;;;;;;;23.73;4.15;;;8.40;99.90;;;;;;4970884;28;20027;-75
2024/03/24 05:07:02;;;;;;;19.17;3.90;;;8.40;99.90;;;;;;4987803;28;20275;-75
2024/03/24 05:09:27;;;;;;;12.77;2.70;;;8.40;99.90;;;;;;4954967;28;20085;-75
2024/03/24 05:11:53;;;;;;;19.98;3.78;;;8.30;99.90;;;;;;4970580;28;20085;-74
2024/03/24 05:14:19;;;;;;;17.98;3.50;;;8.30;99.90;;;;;;4970396;28;20303;-75
2024/03/24 05:16:44;;;;;;;14.70;3.90;;;8.30;99.90;;;;;;4987215;28;20046;-75
2024/03/24 05:19:10;;;;;;;15.35;3.22;;;8.30;99.90;;;;;;4970505;28;20023;-75
2024/03/24 05:21:37;;;;;;;20.08;3.65;;;8.30;99.90;;;;;;4970489;28;20279;-75
2024/03/24 05:24:06;;;;;;;10.80;2.78;;;8.20;99.90;;;;;;4938876;28;20188;-75
2024/03/24 05:26:32;;;;;;;9.40;3.00;;;8.20;99.90;;;;;;4938416;28;20099;-75
2024/03/24 05:29:01;;;;;;;14.10;3.47;;;8.30;99.90;;;;;;4970360;28;20022;-75
2024/03/24 05:31:27;;;;;;;13.45;2.85;;;8.30;99.90;;;;;;4987386;28;20038;-75
2024/03/24 05:33:53;;;;;;;15.50;3.30;;;8.30;99.90;;;;;;4954089;28;20026;-75
2024/03/24 05:36:18;;;;;;;9.85;2.70;;;8.30;99.90;;;;;;4954469;28;20103;-75
2024/03/24 05:38:44;;;;;;;16.80;3.63;;;8.30;99.90;;;;;;4970134;28;20030;-76
2024/03/24 05:41:10;;;;;;;13.23;3.40;;;8.30;99.90;;;;;;4970140;28;20051;-74
2024/03/24 05:43:36;;;;;;;13.10;3.58;;;8.30;99.90;;;;;;4954296;28;20030;-74
2024/03/24 05:46:04;;;;;;;16.92;3.58;;;8.30;99.90;;;;;;4954010;28;20031;-74
2024/03/24 05:48:29;;;;;;;15.55;2.75;;;8.30;99.90;;;;;;4954245;28;20259;-74
2024/03/24 05:51:02;;;;;;;16.10;2.85;;;8.20;99.90;;;;;;4970054;28;20031;-74
2024/03/24 05:53:28;;;;;;;14.07;3.17;;;8.20;99.90;;;;;;4970109;28;20284;-74
2024/03/24 05:55:54;;;;;;;16.67;3.05;;;8.20;99.90;;;;;;4953947;28;20023;-74
2024/03/24 05:58:20;;;;;;;14.35;3.08;;;8.10;99.90;;;;;;4953762;28;20098;-74
2024/03/24 06:00:46;;;;;;;13.45;2.63;;;8.10;99.90;;;;;;4954056;28;20093;-75
2024/03/24 06:03:12;;;;;;;13.75;2.80;;;8.10;99.90;;;;;;4969782;28;20065;-75
2024/03/24 06:05:38;;;;;;;17.10;3.50;;;8.10;99.90;;;;;;4953612;28;20030;-75
2024/03/24 06:08:10;;;;;;;14.05;3.13;;;8.10;99.90;;;;;;4953421;28;20162;-75
2024/03/24 06:10:37;;;;;;;12.63;2.90;;;8.10;99.90;;;;;;4955057;28;20031;-75
2024/03/24 06:13:03;;;;;;;17.42;3.63;;;8.10;99.90;;;;;;4953600;28;20114;-75
2024/03/24 06:15:28;;;;;;;14.05;2.63;;;8.00;99.90;;;;;;4969671;28;20284;-75
2024/03/24 06:17:54;;;;;;;11.88;2.90;;;8.00;99.90;;;;;;4986668;28;20022;-75
2024/03/24 06:20:20;;;;;;;10.27;2.95;;;8.10;99.90;;;;;;4986581;28;20271;-75
2024/03/24 06:22:46;;;;;;;12.10;2.55;;;8.10;99.90;;;;;;4969631;28;20244;-74
2024/03/24 06:25:11;;;;;;;9.18;2.60;;;8.10;99.90;;;;;;4953291;28;20038;-75
2024/03/24 06:27:37;;;;;;;24.75;4.15;;;8.10;99.90;;;;;;4969489;28;20098;-74
2024/03/24 06:30:03;;;;;;;20.77;3.20;;;8.10;99.90;;;;;;4969553;28;20030;-74
2024/03/24 06:32:29;;;;;;;15.05;3.15;;;8.10;99.90;;;;;;4953684;28;20093;-74
2024/03/24 06:34:55;;;;;;;14.45;3.10;;;8.10;99.90;;;;;;4986582;28;20018;-75
2024/03/24 06:37:20;;;;;;;21.27;3.38;;;8.10;99.90;;;;;;4969122;28;20031;-74
2024/03/24 06:39:46;;;;;;;14.60;2.83;;;8.10;99.90;;;;;;4986274;28;20300;-74
2024/03/24 06:42:12;;;;;;;23.08;3.55;;;8.20;99.90;;;;;;4953427;28;20324;-74
2024/03/24 06:44:40;;;;;;;16.55;3.17;;;8.20;99.90;;;;;;4953574;28;20035;-75
2024/03/24 06:47:06;;;;;;;15.88;3.15;;;8.20;99.90;;;;;;4954197;28;20131;-75
2024/03/24 06:49:32;;;;;;;17.13;3.47;;;8.30;99.90;;;;;;4937667;28;20039;-75
2024/03/24 06:51:57;;;;;;;15.38;3.55;;;8.30;99.90;;;;;;4969343;28;20049;-74
2024/03/24 06:54:23;;;;;;;18.35;3.53;;;8.30;99.90;;;;;;4953517;28;20023;-75
2024/03/24 06:56:49;;;;;;;15.60;3.90;;;8.30;99.90;;;;;;4937471;28;20089;-76
2024/03/24 06:59:14;;;;;;;16.27;3.30;;;8.30;99.90;;;;;;4969416;28;20034;-74
2024/03/24 07:01:40;;;;;;;18.50;2.90;;;8.30;99.90;;;;;;4953421;28;20030;-74
2024/03/24 07:04:06;;;;;;;15.68;2.88;;;8.30;99.90;;;;;;4953294;28;20057;-75
2024/03/24 07:06:32;;;;;;;14.30;2.88;;;8.30;99.90;;;;;;4953149;28;20070;-76
2024/03/24 07:08:58;;;;;;;15.32;2.63;;;8.30;99.90;;;;;;4953200;28;20098;-75
2024/03/24 07:11:24;;;;;;;13.68;3.33;;;8.30;99.90;;;;;;4953407;28;20042;-75
2024/03/24 07:13:49;;;;;;;15.68;2.95;;;8.30;99.90;;;;;;4969592;28;20335;-75
2024/03/24 07:16:15;;;;;;;14.52;2.45;;;8.30;99.90;;;;;;4969637;28;20078;-75
2024/03/24 07:18:41;;;;;;;13.35;2.85;;;8.30;99.90;;;;;;4956883;28;20086;-75
2024/03/24 07:21:07;;;;;;;14.20;2.65;;;8.30;99.90;;;;;;4956606;28;20094;-76
2024/03/24 07:23:33;;;;;;;13.77;2.78;;;8.40;99.90;;;;;;4989794;28;20033;-76
2024/03/24 07:25:58;;;;;;;13.52;2.75;;;8.60;99.90;;;;;;4956773;28;20081;-75
2024/03/24 07:28:24;;;;;;;13.65;2.65;;;9.00;99.90;;;;;;4972377;28;20034;-75
2024/03/24 07:30:50;;;;;;;13.43;4.07;;;9.00;99.90;;;;;;4956442;28;20031;-75
2024/03/24 07:33:15;;;;;;;17.77;2.70;;;9.10;99.90;;;;;;4989550;28;20080;-75
2024/03/24 07:35:41;;;;;;;17.65;2.97;;;9.00;99.90;;;;;;4972423;28;20034;-76
2024/03/24 07:38:07;;;;;;;13.85;2.25;;;9.10;99.90;;;;;;4956458;28;20030;-76
2024/03/24 07:40:33;;;;;;;14.57;2.53;;;9.00;99.90;;;;;;4972160;28;20046;-76
2024/03/24 07:42:59;;;;;;;14.65;3.25;;;9.10;99.90;;;;;;4956436;28;20069;-76
2024/03/24 07:45:24;;;;;;;12.95;2.45;;;9.00;99.90;;;;;;4972141;28;20027;-75
2024/03/24 07:47:51;;;;;;;13.23;2.92;;;9.00;99.90;;;;;;4972429;28;20026;-75
2024/03/24 07:50:16;;;;;;;13.23;2.58;;;9.10;99.90;;;;;;4972364;28;20246;-76
2024/03/24 07:52:42;;;;;;;16.65;2.67;;;9.00;99.90;;;;;;4971916;28;20041;-75
2024/03/24 07:55:08;;;;;;;13.02;2.42;;;9.00;99.90;;;;;;4956031;28;20291;-75
2024/03/24 07:57:34;;;;;;;10.23;2.47;;;9.00;99.90;;;;;;4971792;28;20159;-76
2024/03/24 07:59:59;;;;;;;17.48;2.92;;;9.20;99.90;;;;;;4955611;28;20134;-75
2024/03/24 08:02:25;;;;;;;13.35;2.22;;;9.20;99.90;;;;;;4971819;28;20027;-76
2024/03/24 08:04:51;;;;;;;11.38;2.10;;;9.30;99.90;;;;;;4988896;28;20046;-76
2024/03/24 08:07:16;;;;;;;11.07;3.22;;;9.30;99.90;;;;;;4955632;28;20027;-76
2024/03/24 08:09:42;;;;;;;11.65;2.20;;;9.30;99.90;;;;;;4971813;28;20042;-76
2024/03/24 08:12:08;;;;;;;11.82;2.42;;;9.40;99.90;;;;;;4955640;28;20079;-76
2024/03/24 08:14:33;;;;;;;10.73;2.67;;;9.40;99.90;;;;;;4956059;28;20023;-76
2024/03/24 08:16:59;;;;;;;13.63;2.60;;;9.40;99.90;;;;;;4971676;28;20019;-76
2024/03/24 08:19:25;;;;;;;14.00;2.22;;;9.40;99.90;;;;;;4988664;28;20030;-76
2024/03/24 08:21:51;;;;;;;15.05;2.38;;;9.40;99.90;;;;;;4955502;28;20022;-75
2024/03/24 08:24:17;;;;;;;12.18;2.50;;;9.40;99.90;;;;;;4971652;28;20085;-76
2024/03/24 08:26:43;;;;;;;11.45;1.95;;;9.50;99.90;;;;;;4988133;28;20045;-75
2024/03/24 08:29:09;;;;;;;11.75;2.70;;;10.00;99.90;;;;;;4971103;28;20302;-76
2024/03/24 08:31:35;;;;;;;14.25;2.40;;;10.50;99.90;;;;;;4971341;28;20031;-76
2024/03/24 08:34:00;;;;;;;14.13;3.55;;;11.00;99.90;;;;;;4971299;28;20038;-75
2024/03/24 08:36:26;;;;;;;11.63;2.28;;;11.30;99.90;;;;;;4954926;28;20030;-76
2024/03/24 08:38:52;;;;;;;13.98;1.98;;;11.00;99.90;;;;;;4988255;28;20029;-76
2024/03/24 08:41:17;;;;;;;8.43;1.92;;;11.30;99.90;;;;;;4971040;28;20054;-76
2024/03/24 08:43:43;;;;;;;14.15;2.63;;;10.90;99.90;;;;;;4955158;28;20085;-76
2024/03/24 08:46:09;;;;;;;13.38;2.17;;;10.60;99.90;;;;;;4971120;28;20026;-75
2024/03/24 08:48:35;;;;;;;13.50;2.28;;;10.30;99.90;;;;;;4970845;28;20034;-76
2024/03/24 08:51:00;;;;;;;10.45;2.05;;;10.80;99.90;;;;;;4988044;28;20097;-76
2024/03/24 08:53:26;;;;;;;9.40;2.58;;;12.40;99.90;;;;;;4970867;28;20106;-76
2024/03/24 08:55:52;;;;;;;10.07;1.98;;;13.60;99.90;;;;;;4970827;28;20042;-76
2024/03/24 08:58:17;;;;;;;10.13;2.40;;;14.70;99.90;;;;;;4954741;28;20027;-76
2024/03/24 09:00:47;;;;;;;11.73;2.25;;;14.70;99.90;;;;;;4970635;28;20042;-76
2024/03/24 09:03:13;;;;;;;10.75;2.28;;;14.00;99.90;;;;;;4955838;28;20062;-76
2024/03/24 09:05:38;;;;;;;12.43;2.35;;;13.20;99.90;;;;;;4954498;28;20031;-76
2024/03/24 09:08:04;;;;;;;9.73;1.98;;;12.70;99.90;;;;;;4987679;28;20030;-76
2024/03/24 09:10:30;;;;;;;8.93;2.42;;;12.60;99.90;;;;;;4987428;28;20046;-76
2024/03/24 09:12:56;;;;;;;12.20;2.20;;;12.70;99.90;;;;;;4954149;28;20165;-76
2024/03/24 09:15:21;;;;;;;16.85;2.50;;;12.40;99.90;;;;;;4954469;28;20048;-76
2024/03/24 09:17:48;;;;;;;12.90;2.25;;;12.00;99.90;;;;;;4954572;28;20101;-76
2024/03/24 09:20:15;;;;;;;12.63;2.40;;;11.50;99.90;;;;;;4970075;28;20097;-76
2024/03/24 09:22:41;;;;;;;7.45;2.03;;;12.30;99.90;;;;;;4970596;28;20038;-76
2024/03/24 09:25:07;;;;;;;10.35;2.40;;;13.90;99.90;;;;;;4987061;28;20243;-77
2024/03/24 09:27:33;;;;;;;7.57;2.30;;;15.20;99.90;;;;;;4954287;28;20034;-76
2024/03/24 09:29:59;;;;;;;13.45;2.92;;;14.50;99.90;;;;;;4970116;28;20027;-76
2024/03/24 09:32:24;;;;;;;9.30;2.80;;;13.60;99.90;;;;;;4986987;28;20035;-76
2024/03/24 09:34:51;;;;;;;13.30;2.70;;;13.10;99.90;;;;;;4969951;28;20304;-77
2024/03/24 09:37:17;;;;;;;10.35;2.40;;;13.40;99.90;;;;;;4969887;28;20091;-76
2024/03/24 09:39:43;;;;;;;12.00;3.25;;;12.90;99.90;;;;;;4953086;28;20114;-76
2024/03/24 09:42:11;;;;;;;13.55;2.75;;;12.40;99.90;;;;;;4970477;28;20323;-76
2024/03/24 09:44:37;;;;;;;8.75;2.33;;;12.10;99.90;;;;;;4953965;28;20171;-76
2024/03/24 09:47:03;;;;;;;13.73;3.90;;;11.80;99.90;;;;;;4969636;28;20296;-76
2024/03/24 09:49:29;;;;;;;14.75;2.53;;;12.60;99.90;;;;;;4986897;28;20022;-76
2024/03/24 09:51:55;;;;;;;8.55;2.60;;;13.60;99.90;;;;;;4953795;28;20090;-75
2024/03/24 09:54:22;;;;;;;10.55;2.25;;;15.10;99.90;;;;;;4969916;28;20023;-76
2024/03/24 09:56:48;;;;;;;10.40;2.33;;;14.80;99.90;;;;;;4970058;28;20023;-76
2024/03/24 09:59:13;;;;;;;10.52;2.50;;;15.50;99.90;;;;;;4937761;28;20033;-76
2024/03/24 10:01:40;;;;;;;7.78;2.20;;;16.30;99.90;;;;;;4953703;28;20054;-76
2024/03/24 10:04:06;;;;;;;12.45;2.08;;;17.10;99.90;;;;;;4969785;28;20037;-76
2024/03/24 10:06:32;;;;;;;9.57;1.98;;;18.00;99.90;;;;;;4953728;28;20196;-76
2024/03/24 10:08:58;;;;;;;10.93;2.30;;;17.80;99.90;;;;;;4953684;28;20041;-76
2024/03/24 10:11:27;;;;;;;6.63;2.00;;;17.60;99.90;;;;;;4986560;28;20027;-77
2024/03/24 10:13:57;;;;;;;8.15;2.40;;;16.90;99.90;;;;;;4986340;28;20031;-76
2024/03/24 10:16:23;;;;;;;9.45;2.25;;;17.20;99.90;;;;;;4953584;28;20042;-76
2024/03/24 10:18:49;;;;;;;9.20;2.17;;;17.10;99.90;;;;;;4953542;28;20031;-76
2024/03/24 10:21:15;;;;;;;9.52;2.08;;;18.00;99.90;;;;;;4969463;28;20031;-77
2024/03/24 10:23:40;;;;;;;7.72;2.35;;;18.60;99.90;;;;;;4969520;28;20153;-77
2024/03/24 10:26:06;;;;;;;4.90;1.70;;;17.50;99.90;;;;;;4986453;28;20031;-76
2024/03/24 10:28:32;;;;;;;7.45;1.70;;;17.80;99.90;;;;;;4953372;28;20090;-77
2024/03/24 10:31:07;;;;;;;6.70;1.70;;;18.30;99.90;;;;;;4953310;28;20027;-76
2024/03/24 10:33:34;;;;;;;9.23;2.30;;;18.60;99.90;;;;;;4969046;28;20023;-76
2024/03/24 10:36:00;;;;;;;8.73;2.00;;;17.30;99.90;;;;;;4969325;28;20027;-76
2024/03/24 10:38:27;;;;;;;8.70;1.85;;;16.10;99.90;;;;;;4953095;28;20027;-77
2024/03/24 10:41:01;;;;;;;8.77;2.20;;;16.30;99.90;;;;;;4969317;28;20042;-76
2024/03/24 10:43:26;;;;;;;9.98;3.03;;;17.20;99.90;;;;;;4969872;28;20031;-76
2024/03/24 10:45:53;;;;;;;10.70;2.55;;;16.10;99.90;;;;;;4953202;28;20022;-76
2024/03/24 10:48:32;;;;;;;6.90;1.60;;;16.40;99.90;;;;;;4953210;28;20039;-77
2024/03/24 10:51:00;;;;;;;8.10;2.38;;;17.50;99.90;;;;;;4971291;28;20106;-77
2024/03/24 10:53:27;;;;;;;10.63;2.33;;;16.70;99.90;;;;;;4989923;28;20038;-77
2024/03/24 10:55:55;;;;;;;8.35;2.65;;;15.60;99.90;;;;;;4990109;28;20144;-77
2024/03/24 10:58:21;;;;;;;7.18;2.40;;;14.80;99.90;;;;;;4973150;28;20023;-76
2024/03/24 11:00:47;;;;;;;8.88;1.92;;;14.00;99.90;;;;;;4956294;28;20070;-76
2024/03/24 11:03:13;;;;;;;4.70;1.80;;;13.80;99.90;;;;;;4989517;28;20042;-77
2024/03/24 11:05:43;;;;;;;12.50;1.98;;;13.60;99.90;;;;;;4956931;28;20095;-77
2024/03/24 11:08:10;;;;;;;9.57;1.67;;;13.60;99.90;;;;;;4957324;28;20054;-77
2024/03/24 11:10:36;;;;;;;7.40;2.28;;;13.40;99.90;;;;;;4989548;28;20031;-76
2024/03/24 11:13:02;;;;;;;7.43;1.45;;;13.70;99.90;;;;;;4972566;28;20034;-77
2024/03/24 11:15:28;;;;;;;9.15;2.42;;;14.00;99.90;;;;;;4956692;28;20022;-77
2024/03/24 11:17:54;;;;;;;6.15;2.33;;;14.10;99.90;;;;;;4972706;28;20081;-77
2024/03/24 11:20:23;;;;;;;8.57;2.20;;;14.00;99.90;;;;;;4989276;28;20167;-77
2024/03/24 11:22:50;;;;;;;7.35;1.70;;;14.20;99.90;;;;;;4989467;28;20094;-76
2024/03/24 11:25:16;;;;;;;6.10;1.88;;;13.60;99.90;;;;;;4972617;28;20043;-76
2024/03/24 11:27:42;;;;;;;9.43;2.38;;;13.20;99.90;;;;;;4956560;28;20037;-76
2024/03/24 11:30:14;;;;;;;6.40;2.15;;;14.50;99.90;;;;;;4956612;28;20039;-77
2024/03/24 11:32:50;;;;;;;14.63;2.53;;;14.50;99.90;;;;;;4956429;28;20049;-77
2024/03/24 11:35:25;;;;;;;8.68;2.55;;;13.90;99.90;;;;;;4956085;28;20030;-76
2024/03/24 11:37:51;;;;;;;4.20;1.27;;;14.60;99.90;;;;;;4956179;28;20244;-77
2024/03/24 11:40:18;;;;;;;7.38;2.22;;;15.90;99.90;;;;;;4955898;28;20058;-76
2024/03/24 11:42:44;;;;;;;5.90;1.80;;;15.40;99.90;;;;;;4971793;28;20031;-76
2024/03/24 11:45:33;;;;;;;6.13;1.55;;;14.60;99.90;;;;;;4955983;28;20026;-76
2024/03/24 11:48:34;;;;;;;8.05;1.95;;;16.00;99.90;;;;;;4988772;28;20045;-76
2024/03/24 11:51:01;;;;;;;8.30;2.00;;;15.90;99.90;;;;;;4914196;29;20055;-76
2024/03/24 11:53:28;;;;;;;6.03;1.67;;;16.00;99.90;;;;;;4960705;28;20042;-76
2024/03/24 11:55:54;;;;;;;8.05;1.83;;;17.50;99.90;;;;;;4971883;28;20081;-77
2024/03/24 11:58:22;;;;;;;5.85;1.48;;;18.60;99.90;;;;;;4971909;28;20023;-77
2024/03/24 12:00:50;;;;;;;8.32;2.15;;;19.40;99.90;;;;;;4971656;28;20093;-77
2024/03/24 12:03:16;;;;;;;7.65;1.67;;;18.80;99.90;;;;;;4971109;28;20026;-77
2024/03/24 12:05:43;;;;;;;6.10;1.52;;;18.70;99.90;;;;;;4971974;28;20092;-77
2024/03/24 12:08:09;;;;;;;7.65;2.17;;;19.00;99.90;;;;;;4939884;28;20054;-77
2024/03/24 12:10:35;;;;;;;8.27;1.98;;;17.80;99.90;;;;;;4955680;28;20113;-77
2024/03/24 12:13:01;;;;;;;8.15;2.05;;;16.30;99.90;;;;;;4988486;28;20050;-77
2024/03/24 12:15:27;;;;;;;7.53;1.70;;;16.90;99.90;;;;;;4971636;28;20077;-77
2024/03/24 12:17:52;;;;;;;3.25;1.63;;;19.10;99.90;;;;;;4971275;28;20019;-76
2024/03/24 12:20:18;;;;;;;7.43;2.17;;;20.60;99.90;;;;;;4988364;28;20126;-77
2024/03/24 12:22:44;;;;;;;8.68;1.88;;;19.60;99.90;;;;;;4988257;28;20042;-77
2024/03/24 12:25:09;;;;;;;8.63;1.90;;;18.00;99.90;;;;;;4988205;28;20097;-77
2024/03/24 12:27:37;;;;;;;9.25;1.98;;;17.20;99.90;;;;;;4955233;28;20030;-76
2024/03/24 12:30:03;;;;;;;5.70;2.40;;;17.40;99.90;;;;;;4955777;28;20315;-77
2024/03/24 12:32:28;;;;;;;7.10;2.00;;;18.50;99.90;;;;;;4970924;28;20066;-77
2024/03/24 12:35:00;;;;;;;6.47;1.73;;;17.60;99.90;;;;;;4971272;28;20098;-77
2024/03/24 12:37:27;;;;;;;7.05;1.85;;;16.40;99.90;;;;;;4971596;28;20078;-77
2024/03/24 12:39:53;;;;;;;4.75;1.83;;;15.70;99.90;;;;;;4987906;28;20035;-76